Terminal Aerodrome Forecast
Issued by NWS Grand Forks, ND

Home | Current Version | Previous Version | Graphics & Text | Print | Product List | Glossary On
Versions: 1 2 3 4 5 6 7 8 9 10 11 12 13 14
000
FTUS43 KFGF 250235 AAA
TAFFAR
TAF AMD
KFAR 250235Z 2503/2524 33015G25KT P6SM -DZ BKN015 OVC025
      TEMPO 2503/2504 5SM -RA OVC010
     FM250500 32012KT P6SM -DZ BKN020 OVC035
     FM250800 32010KT P6SM BKN035
     FM251100 31009KT P6SM SCT035
     FM251600 32012G18KT P6SM BKN035=

USA.gov is the U.S. government's official web portal to all federal, state and local government web resources and services.